createdAt,value
2022-12-26T00:07:42.166Z,970.84
2022-12-26T00:17:42.482Z,970.84
2022-12-26T00:27:42.548Z,970.94
2022-12-26T00:37:42.766Z,970.81
2022-12-26T00:47:43.134Z,970.82
2022-12-26T00:57:43.090Z,970.76
2022-12-26T01:08:22.825Z,970.65
2022-12-26T01:17:44.470Z,970.64
2022-12-26T01:27:43.625Z,970.79
2022-12-26T01:37:43.938Z,970.70
2022-12-26T01:47:43.992Z,970.65
2022-12-26T01:57:44.203Z,970.84
2022-12-26T02:07:44.365Z,970.84
2022-12-26T02:17:44.560Z,970.88
2022-12-26T02:27:44.735Z,970.78
2022-12-26T02:37:44.940Z,970.67
2022-12-26T02:47:45.113Z,970.76
2022-12-26T02:57:45.315Z,970.88
2022-12-26T03:07:45.450Z,970.85
2022-12-26T03:17:45.670Z,970.89
2022-12-26T03:27:45.849Z,970.83
2022-12-26T03:37:47.803Z,970.83
2022-12-26T03:47:46.267Z,970.57
2022-12-26T03:57:46.471Z,970.63
2022-12-26T04:07:56.016Z,970.76
2022-12-26T04:17:47.826Z,970.81
2022-12-26T04:27:46.989Z,970.83
2022-12-26T04:37:47.197Z,970.95
2022-12-26T04:47:47.331Z,970.93
2022-12-26T04:57:47.528Z,971.10
2022-12-26T05:07:47.739Z,970.99
2022-12-26T05:17:47.818Z,971.10
2022-12-26T05:27:47.988Z,970.92
2022-12-26T05:37:48.085Z,970.77
2022-12-26T05:47:51.797Z,970.79
2022-12-26T05:57:48.377Z,970.59
2022-12-26T06:07:48.528Z,970.71
2022-12-26T06:17:48.756Z,970.94
2022-12-26T06:27:48.930Z,970.95
2022-12-26T06:37:49.152Z,971.00
2022-12-26T06:47:49.331Z,971.09
2022-12-26T06:57:49.535Z,971.10
2022-12-26T07:07:49.675Z,970.99
2022-12-26T07:17:50.021Z,971.17
2022-12-26T07:27:50.070Z,971.07
2022-12-26T07:37:50.294Z,971.12
2022-12-26T07:47:50.432Z,971.01
2022-12-26T07:57:50.638Z,971.13
2022-12-26T08:07:50.786Z,971.17
2022-12-26T08:17:51.009Z,971.23
2022-12-26T08:27:51.193Z,971.30
2022-12-26T08:37:51.405Z,971.22
2022-12-26T08:47:51.678Z,971.31
2022-12-26T08:57:51.865Z,971.53
2022-12-26T09:07:51.916Z,971.90
2022-12-26T09:17:52.137Z,972.01
2022-12-26T09:27:58.587Z,972.09
2022-12-26T09:37:53.503Z,971.97
2022-12-26T09:47:52.656Z,972.20
2022-12-26T09:57:52.884Z,972.28
2022-12-26T10:07:53.124Z,972.56
2022-12-26T10:17:53.217Z,972.68
2022-12-26T10:27:53.402Z,972.65
2022-12-26T10:37:53.672Z,972.84
2022-12-26T10:47:53.730Z,973.03
2022-12-26T10:57:53.948Z,973.42
2022-12-26T11:07:54.077Z,973.60
2022-12-26T11:17:54.529Z,973.65
2022-12-26T11:27:54.516Z,973.35
2022-12-26T11:37:54.562Z,973.16
2022-12-26T11:47:54.743Z,972.68
2022-12-26T11:57:58.525Z,972.95
2022-12-26T12:07:55.127Z,972.99
2022-12-26T12:17:55.324Z,972.70
2022-12-26T12:27:55.534Z,972.78
2022-12-26T12:37:55.631Z,973.21
2022-12-26T12:47:56.089Z,972.72
2022-12-26T12:57:55.963Z,972.84
2022-12-26T13:07:56.126Z,973.01
2022-12-26T13:17:56.305Z,972.80
2022-12-26T13:27:56.519Z,972.88
2022-12-26T13:37:56.714Z,972.91
2022-12-26T13:47:56.860Z,972.20
2022-12-26T13:57:57.147Z,972.59
2022-12-26T14:07:57.178Z,972.71
2022-12-26T14:17:57.393Z,972.57
2022-12-26T14:27:57.574Z,972.46
2022-12-26T14:37:57.777Z,972.38
2022-12-26T14:47:58.204Z,972.36
2022-12-26T14:57:58.095Z,972.64
2022-12-26T15:07:58.442Z,972.62
2022-12-26T15:17:58.448Z,972.44
2022-12-26T15:27:58.696Z,972.26
2022-12-26T15:37:58.706Z,972.29
2022-12-26T15:47:58.746Z,972.22
2022-12-26T15:57:59.047Z,972.35
2022-12-26T16:07:59.082Z,972.38
2022-12-26T16:17:59.269Z,972.48
2022-12-26T16:27:59.457Z,972.49
2022-12-26T16:37:59.660Z,972.50
2022-12-26T16:47:59.826Z,972.56
2022-12-26T16:58:00.004Z,972.63
2022-12-26T17:08:00.162Z,972.63
2022-12-26T17:18:00.561Z,972.64
2022-12-26T17:28:00.518Z,972.65
2022-12-26T17:38:00.721Z,972.85
2022-12-26T17:48:00.876Z,972.71
2022-12-26T17:58:01.060Z,972.64
2022-12-26T18:08:01.224Z,972.51
2022-12-26T18:18:01.363Z,972.59
2022-12-26T18:28:01.549Z,973.10
2022-12-26T18:38:01.658Z,973.70
2022-12-26T18:48:02.132Z,974.25
2022-12-26T18:58:02.008Z,974.48
2022-12-26T19:08:02.232Z,974.65
2022-12-26T19:18:02.660Z,974.76
2022-12-26T19:28:02.517Z,974.84
2022-12-26T19:38:02.769Z,974.95
2022-12-26T19:48:02.843Z,974.96
2022-12-26T19:58:03.086Z,975.00
2022-12-26T20:08:03.149Z,975.12
2022-12-26T20:18:03.563Z,975.36
2022-12-26T20:28:03.539Z,975.60
2022-12-26T20:38:03.781Z,975.89
2022-12-26T20:48:03.970Z,976.01
2022-12-26T20:58:04.181Z,976.24
2022-12-26T21:08:04.374Z,976.29
2022-12-26T21:18:04.581Z,976.38
2022-12-26T21:28:04.797Z,976.44
2022-12-26T21:38:05.039Z,976.58
2022-12-26T21:48:05.218Z,976.73
2022-12-26T21:58:05.447Z,976.98
2022-12-26T22:08:05.521Z,977.16
2022-12-26T22:18:05.781Z,977.44
2022-12-26T22:28:05.879Z,977.59
2022-12-26T22:38:05.990Z,977.82
2022-12-26T22:48:06.179Z,977.88
2022-12-26T22:58:06.423Z,978.19
2022-12-26T23:08:06.572Z,978.23
2022-12-26T23:18:06.694Z,978.25
2022-12-26T23:28:06.901Z,978.42
2022-12-26T23:38:07.143Z,978.44
2022-12-26T23:48:07.325Z,978.55
2022-12-26T23:58:07.543Z,978.84
